sensor_id;sensor_type;location;lat;lon;timestamp;P1;durP1;ratioP1;P2;durP2;ratioP2
11767;SDS011;5941;57.652;12.514;2024-01-30T00:00:12;1999.90;;;999.90;;
11767;SDS011;5941;57.652;12.514;2024-01-30T00:02:38;1999.90;;;999.90;;
11767;SDS011;5941;57.652;12.514;2024-01-30T00:05:04;1999.90;;;999.90;;
11767;SDS011;5941;57.652;12.514;2024-01-30T00:07:30;1999.90;;;999.90;;
11767;SDS011;5941;57.652;12.514;2024-01-30T00:09:56;1999.90;;;999.90;;
11767;SDS011;5941;57.652;12.514;2024-01-30T00:12:22;1999.90;;;999.90;;
11767;SDS011;5941;57.652;12.514;2024-01-30T00:14:48;1999.90;;;999.90;;
11767;SDS011;5941;57.652;12.514;2024-01-30T00:17:14;1999.90;;;999.90;;
11767;SDS011;5941;57.652;12.514;2024-01-30T00:19:40;1999.90;;;999.90;;
11767;SDS011;5941;57.652;12.514;2024-01-30T00:22:06;1999.90;;;999.90;;
11767;SDS011;5941;57.652;12.514;2024-01-30T00:24:32;1999.90;;;999.90;;
11767;SDS011;5941;57.652;12.514;2024-01-30T00:26:58;1999.90;;;999.90;;
11767;SDS011;5941;57.652;12.514;2024-01-30T00:29:24;1999.90;;;999.90;;
11767;SDS011;5941;57.652;12.514;2024-01-30T00:31:55;1999.90;;;999.90;;
11767;SDS011;5941;57.652;12.514;2024-01-30T00:34:21;1999.90;;;999.90;;
11767;SDS011;5941;57.652;12.514;2024-01-30T00:36:47;1999.90;;;999.90;;
11767;SDS011;5941;57.652;12.514;2024-01-30T00:39:13;1999.90;;;999.90;;
11767;SDS011;5941;57.652;12.514;2024-01-30T00:41:40;1999.90;;;999.90;;
11767;SDS011;5941;57.652;12.514;2024-01-30T00:44:06;1999.90;;;999.90;;
11767;SDS011;5941;57.652;12.514;2024-01-30T00:46:32;1999.90;;;999.90;;
11767;SDS011;5941;57.652;12.514;2024-01-30T00:48:58;1999.90;;;999.90;;
11767;SDS011;5941;57.652;12.514;2024-01-30T00:51:24;1999.90;;;999.90;;
11767;SDS011;5941;57.652;12.514;2024-01-30T00:53:50;1999.90;;;999.90;;
11767;SDS011;5941;57.652;12.514;2024-01-30T00:56:16;1999.90;;;999.90;;
11767;SDS011;5941;57.652;12.514;2024-01-30T00:58:43;1999.90;;;999.90;;
11767;SDS011;5941;57.652;12.514;2024-01-30T01:01:09;1999.90;;;999.90;;
11767;SDS011;5941;57.652;12.514;2024-01-30T01:03:36;1999.90;;;999.90;;
11767;SDS011;5941;57.652;12.514;2024-01-30T01:06:02;1999.90;;;999.90;;
11767;SDS011;5941;57.652;12.514;2024-01-30T01:08:28;1999.90;;;999.90;;
11767;SDS011;5941;57.652;12.514;2024-01-30T01:10:54;1999.90;;;999.90;;
11767;SDS011;5941;57.652;12.514;2024-01-30T01:13:20;1999.90;;;999.90;;
11767;SDS011;5941;57.652;12.514;2024-01-30T01:15:46;1999.90;;;999.90;;
11767;SDS011;5941;57.652;12.514;2024-01-30T01:18:12;1999.90;;;999.90;;
11767;SDS011;5941;57.652;12.514;2024-01-30T01:20:38;1999.90;;;999.90;;
11767;SDS011;5941;57.652;12.514;2024-01-30T01:23:03;1999.90;;;999.90;;
11767;SDS011;5941;57.652;12.514;2024-01-30T01:25:29;1999.90;;;999.90;;
11767;SDS011;5941;57.652;12.514;2024-01-30T01:27:55;1999.90;;;999.90;;
11767;SDS011;5941;57.652;12.514;2024-01-30T01:30:22;1999.90;;;999.90;;
11767;SDS011;5941;57.652;12.514;2024-01-30T01:32:48;1999.90;;;999.90;;
11767;SDS011;5941;57.652;12.514;2024-01-30T01:35:24;1999.90;;;999.90;;
11767;SDS011;5941;57.652;12.514;2024-01-30T01:37:51;1999.90;;;999.90;;
11767;SDS011;5941;57.652;12.514;2024-01-30T01:40:22;1999.90;;;999.90;;
11767;SDS011;5941;57.652;12.514;2024-01-30T01:42:49;1999.90;;;999.90;;
11767;SDS011;5941;57.652;12.514;2024-01-30T01:45:16;1999.90;;;999.90;;
11767;SDS011;5941;57.652;12.514;2024-01-30T01:47:41;1999.90;;;999.90;;
11767;SDS011;5941;57.652;12.514;2024-01-30T01:50:08;1999.90;;;999.90;;
11767;SDS011;5941;57.652;12.514;2024-01-30T01:52:34;1999.90;;;999.90;;
11767;SDS011;5941;57.652;12.514;2024-01-30T01:55:00;1999.90;;;999.90;;
11767;SDS011;5941;57.652;12.514;2024-01-30T01:57:26;1999.90;;;999.90;;
11767;SDS011;5941;57.652;12.514;2024-01-30T01:59:52;1999.90;;;999.90;;
11767;SDS011;5941;57.652;12.514;2024-01-30T02:02:18;1999.90;;;999.90;;
11767;SDS011;5941;57.652;12.514;2024-01-30T02:04:45;1999.90;;;999.90;;
11767;SDS011;5941;57.652;12.514;2024-01-30T02:07:11;1999.90;;;999.90;;
11767;SDS011;5941;57.652;12.514;2024-01-30T02:09:37;1999.90;;;999.90;;
11767;SDS011;5941;57.652;12.514;2024-01-30T02:12:03;1999.90;;;999.90;;
11767;SDS011;5941;57.652;12.514;2024-01-30T02:14:29;1999.90;;;999.90;;
11767;SDS011;5941;57.652;12.514;2024-01-30T02:16:55;1999.90;;;999.90;;
11767;SDS011;5941;57.652;12.514;2024-01-30T02:19:21;1999.90;;;999.90;;
11767;SDS011;5941;57.652;12.514;2024-01-30T02:21:47;1999.90;;;999.90;;
11767;SDS011;5941;57.652;12.514;2024-01-30T02:24:13;1999.90;;;999.90;;
11767;SDS011;5941;57.652;12.514;2024-01-30T02:26:39;1999.90;;;999.90;;
11767;SDS011;5941;57.652;12.514;2024-01-30T02:29:05;1999.90;;;999.90;;
11767;SDS011;5941;57.652;12.514;2024-01-30T02:31:31;1999.90;;;999.90;;
11767;SDS011;5941;57.652;12.514;2024-01-30T02:33:57;1999.90;;;999.90;;
11767;SDS011;5941;57.652;12.514;2024-01-30T02:36:23;1999.90;;;999.90;;
11767;SDS011;5941;57.652;12.514;2024-01-30T02:38:49;1999.90;;;999.90;;
11767;SDS011;5941;57.652;12.514;2024-01-30T02:41:15;1999.90;;;999.90;;
11767;SDS011;5941;57.652;12.514;2024-01-30T02:43:41;1999.90;;;999.90;;
11767;SDS011;5941;57.652;12.514;2024-01-30T02:46:07;1999.90;;;999.90;;
11767;SDS011;5941;57.652;12.514;2024-01-30T02:48:33;1999.90;;;999.90;;
11767;SDS011;5941;57.652;12.514;2024-01-30T02:50:59;1999.90;;;999.90;;
11767;SDS011;5941;57.652;12.514;2024-01-30T02:53:25;1999.90;;;999.90;;
11767;SDS011;5941;57.652;12.514;2024-01-30T02:55:51;1999.90;;;999.90;;
11767;SDS011;5941;57.652;12.514;2024-01-30T02:58:17;1999.90;;;999.90;;
11767;SDS011;5941;57.652;12.514;2024-01-30T03:00:43;1999.90;;;999.90;;
11767;SDS011;5941;57.652;12.514;2024-01-30T03:03:09;1999.90;;;999.90;;
11767;SDS011;5941;57.652;12.514;2024-01-30T03:05:35;1999.90;;;999.90;;
11767;SDS011;5941;57.652;12.514;2024-01-30T03:08:01;1999.90;;;999.90;;
11767;SDS011;5941;57.652;12.514;2024-01-30T03:10:27;1999.90;;;999.90;;
11767;SDS011;5941;57.652;12.514;2024-01-30T03:12:53;1999.90;;;999.90;;
11767;SDS011;5941;57.652;12.514;2024-01-30T03:15:19;1999.90;;;999.90;;
11767;SDS011;5941;57.652;12.514;2024-01-30T03:17:45;1999.90;;;999.90;;
11767;SDS011;5941;57.652;12.514;2024-01-30T03:20:11;1999.90;;;999.90;;
11767;SDS011;5941;57.652;12.514;2024-01-30T03:22:37;1999.90;;;999.90;;
11767;SDS011;5941;57.652;12.514;2024-01-30T03:25:03;1999.90;;;999.90;;
11767;SDS011;5941;57.652;12.514;2024-01-30T03:27:29;1999.90;;;999.90;;
11767;SDS011;5941;57.652;12.514;2024-01-30T03:29:55;1999.90;;;999.90;;
11767;SDS011;5941;57.652;12.514;2024-01-30T03:32:21;1999.90;;;999.90;;
11767;SDS011;5941;57.652;12.514;2024-01-30T03:34:47;1999.90;;;999.90;;
11767;SDS011;5941;57.652;12.514;2024-01-30T03:37:13;1999.90;;;999.90;;
11767;SDS011;5941;57.652;12.514;2024-01-30T03:39:39;1999.90;;;999.90;;
11767;SDS011;5941;57.652;12.514;2024-01-30T03:42:05;1999.90;;;999.90;;
11767;SDS011;5941;57.652;12.514;2024-01-30T03:44:31;1999.90;;;999.90;;
11767;SDS011;5941;57.652;12.514;2024-01-30T03:46:57;1999.90;;;999.90;;
11767;SDS011;5941;57.652;12.514;2024-01-30T03:49:23;1999.90;;;999.90;;
11767;SDS011;5941;57.652;12.514;2024-01-30T03:51:49;1999.90;;;999.90;;
11767;SDS011;5941;57.652;12.514;2024-01-30T03:54:15;1999.90;;;999.90;;
11767;SDS011;5941;57.652;12.514;2024-01-30T03:56:41;1999.90;;;999.90;;
11767;SDS011;5941;57.652;12.514;2024-01-30T03:59:07;1999.90;;;999.90;;
11767;SDS011;5941;57.652;12.514;2024-01-30T04:01:33;1999.90;;;999.90;;
11767;SDS011;5941;57.652;12.514;2024-01-30T04:03:59;1999.90;;;999.90;;
11767;SDS011;5941;57.652;12.514;2024-01-30T04:06:25;1999.90;;;999.90;;
11767;SDS011;5941;57.652;12.514;2024-01-30T04:08:51;1999.90;;;999.90;;
11767;SDS011;5941;57.652;12.514;2024-01-30T04:11:18;1999.90;;;999.90;;
11767;SDS011;5941;57.652;12.514;2024-01-30T04:13:44;1999.90;;;999.90;;
11767;SDS011;5941;57.652;12.514;2024-01-30T04:16:22;1999.90;;;999.90;;
11767;SDS011;5941;57.652;12.514;2024-01-30T04:18:48;1999.90;;;999.90;;
11767;SDS011;5941;57.652;12.514;2024-01-30T04:21:14;1999.90;;;999.90;;
11767;SDS011;5941;57.652;12.514;2024-01-30T04:23:41;1999.90;;;999.90;;
11767;SDS011;5941;57.652;12.514;2024-01-30T04:26:07;1999.90;;;999.90;;
11767;SDS011;5941;57.652;12.514;2024-01-30T04:28:33;1999.90;;;999.90;;
11767;SDS011;5941;57.652;12.514;2024-01-30T04:30:59;1999.90;;;999.90;;
11767;SDS011;5941;57.652;12.514;2024-01-30T04:33:25;1999.90;;;999.90;;
11767;SDS011;5941;57.652;12.514;2024-01-30T04:35:51;1999.90;;;999.90;;
11767;SDS011;5941;57.652;12.514;2024-01-30T04:38:17;1999.90;;;999.90;;
11767;SDS011;5941;57.652;12.514;2024-01-30T04:40:43;1999.90;;;999.90;;
11767;SDS011;5941;57.652;12.514;2024-01-30T04:43:09;1999.90;;;999.90;;
11767;SDS011;5941;57.652;12.514;2024-01-30T04:45:35;1999.90;;;999.90;;
11767;SDS011;5941;57.652;12.514;2024-01-30T04:48:01;1999.90;;;999.90;;
11767;SDS011;5941;57.652;12.514;2024-01-30T04:50:27;1999.90;;;999.90;;
11767;SDS011;5941;57.652;12.514;2024-01-30T04:52:53;1999.90;;;999.90;;
11767;SDS011;5941;57.652;12.514;2024-01-30T04:55:19;1999.90;;;999.90;;
11767;SDS011;5941;57.652;12.514;2024-01-30T04:57:45;1999.90;;;999.90;;
11767;SDS011;5941;57.652;12.514;2024-01-30T05:00:11;1999.90;;;999.90;;
11767;SDS011;5941;57.652;12.514;2024-01-30T05:02:37;1999.90;;;999.90;;
11767;SDS011;5941;57.652;12.514;2024-01-30T05:05:03;1999.90;;;999.90;;
11767;SDS011;5941;57.652;12.514;2024-01-30T05:07:29;1999.90;;;999.90;;
11767;SDS011;5941;57.652;12.514;2024-01-30T05:09:56;1999.90;;;999.90;;
11767;SDS011;5941;57.652;12.514;2024-01-30T05:12:22;1999.90;;;999.90;;
11767;SDS011;5941;57.652;12.514;2024-01-30T05:14:48;1999.90;;;999.90;;
11767;SDS011;5941;57.652;12.514;2024-01-30T05:17:14;1999.90;;;999.90;;
11767;SDS011;5941;57.652;12.514;2024-01-30T05:19:40;1999.90;;;999.90;;
11767;SDS011;5941;57.652;12.514;2024-01-30T05:22:06;1999.90;;;999.90;;
11767;SDS011;5941;57.652;12.514;2024-01-30T05:24:32;1999.90;;;999.90;;
11767;SDS011;5941;57.652;12.514;2024-01-30T05:26:58;1999.90;;;999.90;;
11767;SDS011;5941;57.652;12.514;2024-01-30T05:29:24;1999.90;;;999.90;;
11767;SDS011;5941;57.652;12.514;2024-01-30T05:31:50;1999.90;;;999.90;;
11767;SDS011;5941;57.652;12.514;2024-01-30T05:34:16;1999.90;;;999.90;;
11767;SDS011;5941;57.652;12.514;2024-01-30T05:36:42;1999.90;;;999.90;;
11767;SDS011;5941;57.652;12.514;2024-01-30T05:39:08;1999.90;;;999.90;;
11767;SDS011;5941;57.652;12.514;2024-01-30T05:41:35;1999.90;;;999.90;;
11767;SDS011;5941;57.652;12.514;2024-01-30T05:44:01;1999.90;;;999.90;;
11767;SDS011;5941;57.652;12.514;2024-01-30T05:46:27;1999.90;;;999.90;;
11767;SDS011;5941;57.652;12.514;2024-01-30T05:48:53;1999.90;;;999.90;;
11767;SDS011;5941;57.652;12.514;2024-01-30T05:51:19;1999.90;;;999.90;;
11767;SDS011;5941;57.652;12.514;2024-01-30T05:53:45;1999.90;;;999.90;;
11767;SDS011;5941;57.652;12.514;2024-01-30T05:56:11;1999.90;;;999.90;;
11767;SDS011;5941;57.652;12.514;2024-01-30T05:58:37;796.40;;;752.63;;
11767;SDS011;5941;57.652;12.514;2024-01-30T06:01:06;685.80;;;651.83;;
11767;SDS011;5941;57.652;12.514;2024-01-30T06:03:33;679.50;;;645.77;;
11767;SDS011;5941;57.652;12.514;2024-01-30T06:05:59;783.67;;;740.40;;
11767;SDS011;5941;57.652;12.514;2024-01-30T06:08:25;1999.90;;;999.90;;
11767;SDS011;5941;57.652;12.514;2024-01-30T06:10:51;1999.90;;;999.90;;
11767;SDS011;5941;57.652;12.514;2024-01-30T06:13:17;1999.90;;;999.90;;
11767;SDS011;5941;57.652;12.514;2024-01-30T06:15:43;1999.90;;;999.90;;
11767;SDS011;5941;57.652;12.514;2024-01-30T06:18:09;1999.90;;;999.90;;
11767;SDS011;5941;57.652;12.514;2024-01-30T06:20:35;1999.90;;;999.90;;
11767;SDS011;5941;57.652;12.514;2024-01-30T06:23:01;1999.90;;;999.90;;
11767;SDS011;5941;57.652;12.514;2024-01-30T06:25:27;1999.90;;;999.90;;
11767;SDS011;5941;57.652;12.514;2024-01-30T06:27:53;1999.90;;;999.90;;
11767;SDS011;5941;57.652;12.514;2024-01-30T06:30:19;1999.90;;;999.90;;
11767;SDS011;5941;57.652;12.514;2024-01-30T06:32:47;1999.90;;;999.90;;
11767;SDS011;5941;57.652;12.514;2024-01-30T06:35:13;1999.90;;;999.90;;
11767;SDS011;5941;57.652;12.514;2024-01-30T06:37:39;1999.90;;;999.90;;
11767;SDS011;5941;57.652;12.514;2024-01-30T06:40:05;1999.90;;;999.90;;
11767;SDS011;5941;57.652;12.514;2024-01-30T06:42:31;1999.90;;;999.90;;
11767;SDS011;5941;57.652;12.514;2024-01-30T06:44:57;1999.90;;;999.90;;
11767;SDS011;5941;57.652;12.514;2024-01-30T06:47:23;1999.90;;;999.90;;
11767;SDS011;5941;57.652;12.514;2024-01-30T06:49:49;1999.90;;;999.90;;
11767;SDS011;5941;57.652;12.514;2024-01-30T06:52:15;1999.90;;;999.90;;
11767;SDS011;5941;57.652;12.514;2024-01-30T06:54:41;1999.90;;;999.90;;
11767;SDS011;5941;57.652;12.514;2024-01-30T06:57:07;1230.63;;;862.67;;
11767;SDS011;5941;57.652;12.514;2024-01-30T06:59:36;1999.90;;;999.90;;
11767;SDS011;5941;57.652;12.514;2024-01-30T07:02:08;644.33;;;602.40;;
11767;SDS011;5941;57.652;12.514;2024-01-30T07:04:34;826.63;;;779.13;;
11767;SDS011;5941;57.652;12.514;2024-01-30T07:07:02;713.13;;;676.47;;
11767;SDS011;5941;57.652;12.514;2024-01-30T07:09:28;719.47;;;682.40;;
11767;SDS011;5941;57.652;12.514;2024-01-30T07:11:54;797.03;;;751.90;;
11767;SDS011;5941;57.652;12.514;2024-01-30T07:14:20;1999.90;;;999.90;;
11767;SDS011;5941;57.652;12.514;2024-01-30T07:16:46;1999.90;;;999.90;;
11767;SDS011;5941;57.652;12.514;2024-01-30T07:19:12;1999.90;;;999.90;;
11767;SDS011;5941;57.652;12.514;2024-01-30T07:21:38;1999.90;;;999.90;;
11767;SDS011;5941;57.652;12.514;2024-01-30T07:24:05;1999.90;;;999.90;;
11767;SDS011;5941;57.652;12.514;2024-01-30T07:26:31;1999.90;;;999.90;;
11767;SDS011;5941;57.652;12.514;2024-01-30T07:28:57;1999.90;;;999.90;;
11767;SDS011;5941;57.652;12.514;2024-01-30T07:31:23;1999.90;;;999.90;;
11767;SDS011;5941;57.652;12.514;2024-01-30T07:33:49;1999.90;;;999.90;;
11767;SDS011;5941;57.652;12.514;2024-01-30T07:36:15;1999.90;;;999.90;;
11767;SDS011;5941;57.652;12.514;2024-01-30T07:38:41;1999.90;;;999.90;;
11767;SDS011;5941;57.652;12.514;2024-01-30T07:41:07;1999.90;;;999.90;;
11767;SDS011;5941;57.652;12.514;2024-01-30T07:43:33;1999.90;;;999.90;;
11767;SDS011;5941;57.652;12.514;2024-01-30T07:45:59;1999.90;;;999.90;;
11767;SDS011;5941;57.652;12.514;2024-01-30T07:48:26;1999.90;;;999.90;;
11767;SDS011;5941;57.652;12.514;2024-01-30T07:50:52;1999.90;;;999.90;;
11767;SDS011;5941;57.652;12.514;2024-01-30T07:53:18;1999.90;;;999.90;;
11767;SDS011;5941;57.652;12.514;2024-01-30T07:55:45;1999.90;;;999.90;;
11767;SDS011;5941;57.652;12.514;2024-01-30T07:58:11;1999.90;;;999.90;;
11767;SDS011;5941;57.652;12.514;2024-01-30T08:00:37;1999.90;;;999.90;;
11767;SDS011;5941;57.652;12.514;2024-01-30T08:03:04;881.10;;;825.60;;
11767;SDS011;5941;57.652;12.514;2024-01-30T08:05:30;1999.90;;;999.90;;
11767;SDS011;5941;57.652;12.514;2024-01-30T08:07:56;838.10;;;784.03;;
11767;SDS011;5941;57.652;12.514;2024-01-30T08:10:22;879.13;;;824.67;;
11767;SDS011;5941;57.652;12.514;2024-01-30T08:12:48;780.20;;;736.80;;
11767;SDS011;5941;57.652;12.514;2024-01-30T08:15:14;1208.27;;;843.23;;
11767;SDS011;5941;57.652;12.514;2024-01-30T08:17:40;1999.90;;;999.90;;
11767;SDS011;5941;57.652;12.514;2024-01-30T08:20:06;1999.90;;;999.90;;
11767;SDS011;5941;57.652;12.514;2024-01-30T08:22:33;1999.90;;;999.90;;
11767;SDS011;5941;57.652;12.514;2024-01-30T08:24:59;1999.90;;;999.90;;
11767;SDS011;5941;57.652;12.514;2024-01-30T08:27:25;1999.90;;;999.90;;
11767;SDS011;5941;57.652;12.514;2024-01-30T08:29:51;1999.90;;;999.90;;
11767;SDS011;5941;57.652;12.514;2024-01-30T08:32:17;1999.90;;;999.90;;
11767;SDS011;5941;57.652;12.514;2024-01-30T08:34:43;1999.90;;;999.90;;
11767;SDS011;5941;57.652;12.514;2024-01-30T08:37:09;1999.90;;;999.90;;
11767;SDS011;5941;57.652;12.514;2024-01-30T08:39:35;1999.90;;;999.90;;
11767;SDS011;5941;57.652;12.514;2024-01-30T08:42:01;1999.90;;;999.90;;
11767;SDS011;5941;57.652;12.514;2024-01-30T08:44:27;1999.90;;;999.90;;
11767;SDS011;5941;57.652;12.514;2024-01-30T08:46:53;1999.90;;;999.90;;
11767;SDS011;5941;57.652;12.514;2024-01-30T08:49:19;1999.90;;;999.90;;
11767;SDS011;5941;57.652;12.514;2024-01-30T08:51:46;1999.90;;;999.90;;
11767;SDS011;5941;57.652;12.514;2024-01-30T08:54:12;1999.90;;;999.90;;
11767;SDS011;5941;57.652;12.514;2024-01-30T08:56:38;1999.90;;;999.90;;
11767;SDS011;5941;57.652;12.514;2024-01-30T08:59:04;1999.90;;;999.90;;
11767;SDS011;5941;57.652;12.514;2024-01-30T09:01:30;1999.90;;;999.90;;
11767;SDS011;5941;57.652;12.514;2024-01-30T09:03:56;1999.90;;;999.90;;
11767;SDS011;5941;57.652;12.514;2024-01-30T09:06:22;1999.90;;;999.90;;
11767;SDS011;5941;57.652;12.514;2024-01-30T09:08:49;1999.90;;;999.90;;
11767;SDS011;5941;57.652;12.514;2024-01-30T09:11:15;1999.90;;;999.90;;
11767;SDS011;5941;57.652;12.514;2024-01-30T09:13:41;1999.90;;;999.90;;
11767;SDS011;5941;57.652;12.514;2024-01-30T09:16:08;1999.90;;;999.90;;
11767;SDS011;5941;57.652;12.514;2024-01-30T09:18:34;1999.90;;;999.90;;
11767;SDS011;5941;57.652;12.514;2024-01-30T09:21:00;1999.90;;;999.90;;
11767;SDS011;5941;57.652;12.514;2024-01-30T09:23:29;1999.90;;;999.90;;
11767;SDS011;5941;57.652;12.514;2024-01-30T09:25:56;1999.90;;;999.90;;
11767;SDS011;5941;57.652;12.514;2024-01-30T09:28:22;1999.90;;;999.90;;
11767;SDS011;5941;57.652;12.514;2024-01-30T09:30:48;1999.90;;;999.90;;
11767;SDS011;5941;57.652;12.514;2024-01-30T09:33:13;1999.90;;;999.90;;
11767;SDS011;5941;57.652;12.514;2024-01-30T09:35:39;1999.90;;;999.90;;
11767;SDS011;5941;57.652;12.514;2024-01-30T09:38:06;1999.90;;;999.90;;
11767;SDS011;5941;57.652;12.514;2024-01-30T09:40:32;1999.90;;;999.90;;
11767;SDS011;5941;57.652;12.514;2024-01-30T09:42:58;1999.90;;;999.90;;
11767;SDS011;5941;57.652;12.514;2024-01-30T09:45:27;1999.90;;;999.90;;
11767;SDS011;5941;57.652;12.514;2024-01-30T09:47:53;1999.90;;;999.90;;
11767;SDS011;5941;57.652;12.514;2024-01-30T09:50:19;1999.90;;;999.90;;
11767;SDS011;5941;57.652;12.514;2024-01-30T09:52:46;1999.90;;;999.90;;
11767;SDS011;5941;57.652;12.514;2024-01-30T09:55:12;1999.90;;;999.90;;
11767;SDS011;5941;57.652;12.514;2024-01-30T09:57:38;1999.90;;;999.90;;
11767;SDS011;5941;57.652;12.514;2024-01-30T10:00:04;1999.90;;;999.90;;
11767;SDS011;5941;57.652;12.514;2024-01-30T10:02:33;1999.90;;;999.90;;
11767;SDS011;5941;57.652;12.514;2024-01-30T10:05:00;1999.90;;;999.90;;
11767;SDS011;5941;57.652;12.514;2024-01-30T10:07:26;1999.90;;;999.90;;
11767;SDS011;5941;57.652;12.514;2024-01-30T10:09:52;1999.90;;;999.90;;
11767;SDS011;5941;57.652;12.514;2024-01-30T10:12:19;1999.90;;;999.90;;
11767;SDS011;5941;57.652;12.514;2024-01-30T10:14:45;1999.90;;;999.90;;
11767;SDS011;5941;57.652;12.514;2024-01-30T10:17:11;1999.90;;;999.90;;
11767;SDS011;5941;57.652;12.514;2024-01-30T10:19:38;1999.90;;;999.90;;
11767;SDS011;5941;57.652;12.514;2024-01-30T10:22:04;1999.90;;;999.90;;
11767;SDS011;5941;57.652;12.514;2024-01-30T10:24:30;1999.90;;;999.90;;
11767;SDS011;5941;57.652;12.514;2024-01-30T10:26:56;1999.90;;;999.90;;
11767;SDS011;5941;57.652;12.514;2024-01-30T10:29:22;1999.90;;;999.90;;
11767;SDS011;5941;57.652;12.514;2024-01-30T10:32:01;1999.90;;;999.90;;
11767;SDS011;5941;57.652;12.514;2024-01-30T10:34:27;1999.90;;;999.90;;
11767;SDS011;5941;57.652;12.514;2024-01-30T10:36:57;1999.90;;;999.90;;
11767;SDS011;5941;57.652;12.514;2024-01-30T10:39:25;1999.90;;;999.90;;
11767;SDS011;5941;57.652;12.514;2024-01-30T10:41:52;1999.90;;;999.90;;
11767;SDS011;5941;57.652;12.514;2024-01-30T10:44:19;1999.90;;;999.90;;
11767;SDS011;5941;57.652;12.514;2024-01-30T10:46:48;1999.90;;;999.90;;
11767;SDS011;5941;57.652;12.514;2024-01-30T10:49:16;1999.90;;;999.90;;
11767;SDS011;5941;57.652;12.514;2024-01-30T10:51:42;1999.90;;;999.90;;
11767;SDS011;5941;57.652;12.514;2024-01-30T10:54:08;1999.90;;;999.90;;
11767;SDS011;5941;57.652;12.514;2024-01-30T10:56:35;1999.90;;;999.90;;
11767;SDS011;5941;57.652;12.514;2024-01-30T10:59:01;1999.90;;;999.90;;
11767;SDS011;5941;57.652;12.514;2024-01-30T11:01:28;1999.90;;;999.90;;
11767;SDS011;5941;57.652;12.514;2024-01-30T11:03:54;1999.90;;;999.90;;
11767;SDS011;5941;57.652;12.514;2024-01-30T11:06:24;1999.90;;;999.90;;
11767;SDS011;5941;57.652;12.514;2024-01-30T11:09:00;1999.90;;;999.90;;
11767;SDS011;5941;57.652;12.514;2024-01-30T11:11:28;1999.90;;;999.90;;
11767;SDS011;5941;57.652;12.514;2024-01-30T11:13:54;1999.90;;;999.90;;
11767;SDS011;5941;57.652;12.514;2024-01-30T11:16:20;1999.90;;;999.90;;
11767;SDS011;5941;57.652;12.514;2024-01-30T11:18:50;1999.90;;;999.90;;
11767;SDS011;5941;57.652;12.514;2024-01-30T11:21:19;1999.90;;;999.90;;
11767;SDS011;5941;57.652;12.514;2024-01-30T11:23:45;1999.90;;;999.90;;
11767;SDS011;5941;57.652;12.514;2024-01-30T11:26:11;1999.90;;;999.90;;
11767;SDS011;5941;57.652;12.514;2024-01-30T11:28:37;1999.90;;;999.90;;
11767;SDS011;5941;57.652;12.514;2024-01-30T11:31:06;1999.90;;;999.90;;
11767;SDS011;5941;57.652;12.514;2024-01-30T11:33:33;1999.90;;;999.90;;
11767;SDS011;5941;57.652;12.514;2024-01-30T11:35:59;1999.90;;;999.90;;
11767;SDS011;5941;57.652;12.514;2024-01-30T11:38:29;1999.90;;;999.90;;
11767;SDS011;5941;57.652;12.514;2024-01-30T11:40:55;1999.90;;;999.90;;
11767;SDS011;5941;57.652;12.514;2024-01-30T11:43:24;1999.90;;;999.90;;
11767;SDS011;5941;57.652;12.514;2024-01-30T11:45:50;1999.90;;;999.90;;
11767;SDS011;5941;57.652;12.514;2024-01-30T11:48:17;1999.90;;;999.90;;
11767;SDS011;5941;57.652;12.514;2024-01-30T11:50:43;1999.90;;;999.90;;
11767;SDS011;5941;57.652;12.514;2024-01-30T11:53:12;1999.90;;;999.90;;
11767;SDS011;5941;57.652;12.514;2024-01-30T11:55:38;1999.90;;;999.90;;
11767;SDS011;5941;57.652;12.514;2024-01-30T11:58:04;1999.90;;;999.90;;
11767;SDS011;5941;57.652;12.514;2024-01-30T12:00:30;1999.90;;;999.90;;
11767;SDS011;5941;57.652;12.514;2024-01-30T12:02:58;1999.90;;;999.90;;
11767;SDS011;5941;57.652;12.514;2024-01-30T12:05:25;1999.90;;;999.90;;
11767;SDS011;5941;57.652;12.514;2024-01-30T12:07:51;1999.90;;;999.90;;
11767;SDS011;5941;57.652;12.514;2024-01-30T12:10:18;1999.90;;;999.90;;
11767;SDS011;5941;57.652;12.514;2024-01-30T12:12:47;1999.90;;;999.90;;
11767;SDS011;5941;57.652;12.514;2024-01-30T12:15:13;1999.90;;;999.90;;
11767;SDS011;5941;57.652;12.514;2024-01-30T12:17:40;1999.90;;;999.90;;
11767;SDS011;5941;57.652;12.514;2024-01-30T12:20:10;1999.90;;;999.90;;
11767;SDS011;5941;57.652;12.514;2024-01-30T12:22:36;1999.90;;;999.90;;
11767;SDS011;5941;57.652;12.514;2024-01-30T12:25:09;1999.90;;;999.90;;
11767;SDS011;5941;57.652;12.514;2024-01-30T12:27:36;1999.90;;;999.90;;
11767;SDS011;5941;57.652;12.514;2024-01-30T12:30:05;1999.90;;;999.90;;
11767;SDS011;5941;57.652;12.514;2024-01-30T12:32:31;1999.90;;;999.90;;
11767;SDS011;5941;57.652;12.514;2024-01-30T12:34:57;1999.90;;;999.90;;
11767;SDS011;5941;57.652;12.514;2024-01-30T12:37:23;1999.90;;;999.90;;
11767;SDS011;5941;57.652;12.514;2024-01-30T12:39:49;1999.90;;;999.90;;
11767;SDS011;5941;57.652;12.514;2024-01-30T12:42:15;1999.90;;;999.90;;
11767;SDS011;5941;57.652;12.514;2024-01-30T12:44:41;1999.90;;;999.90;;
11767;SDS011;5941;57.652;12.514;2024-01-30T12:47:10;1999.90;;;999.90;;
11767;SDS011;5941;57.652;12.514;2024-01-30T12:49:36;1999.90;;;999.90;;
11767;SDS011;5941;57.652;12.514;2024-01-30T12:52:02;1999.90;;;999.90;;
11767;SDS011;5941;57.652;12.514;2024-01-30T12:54:28;1999.90;;;999.90;;
11767;SDS011;5941;57.652;12.514;2024-01-30T12:56:54;1999.90;;;999.90;;
11767;SDS011;5941;57.652;12.514;2024-01-30T12:59:21;1999.90;;;999.90;;
11767;SDS011;5941;57.652;12.514;2024-01-30T13:01:48;1999.90;;;999.90;;
11767;SDS011;5941;57.652;12.514;2024-01-30T13:04:14;1999.90;;;999.90;;
11767;SDS011;5941;57.652;12.514;2024-01-30T13:06:40;1999.90;;;999.90;;
11767;SDS011;5941;57.652;12.514;2024-01-30T13:09:06;1999.90;;;999.90;;
11767;SDS011;5941;57.652;12.514;2024-01-30T13:11:32;1999.90;;;999.90;;
11767;SDS011;5941;57.652;12.514;2024-01-30T13:13:59;1999.90;;;999.90;;
11767;SDS011;5941;57.652;12.514;2024-01-30T13:16:25;1999.90;;;999.90;;
11767;SDS011;5941;57.652;12.514;2024-01-30T13:18:51;1999.90;;;999.90;;
11767;SDS011;5941;57.652;12.514;2024-01-30T13:21:17;1999.90;;;999.90;;
11767;SDS011;5941;57.652;12.514;2024-01-30T13:23:43;1999.90;;;999.90;;
11767;SDS011;5941;57.652;12.514;2024-01-30T13:26:09;1999.90;;;999.90;;
11767;SDS011;5941;57.652;12.514;2024-01-30T13:28:35;1999.90;;;999.90;;
11767;SDS011;5941;57.652;12.514;2024-01-30T13:31:01;1999.90;;;999.90;;
11767;SDS011;5941;57.652;12.514;2024-01-30T13:33:27;1999.90;;;999.90;;
11767;SDS011;5941;57.652;12.514;2024-01-30T13:35:53;1999.90;;;999.90;;
11767;SDS011;5941;57.652;12.514;2024-01-30T13:38:19;1999.90;;;999.90;;
11767;SDS011;5941;57.652;12.514;2024-01-30T13:40:45;1999.90;;;999.90;;